WXForecasting.com
Aberdeen, SD - Weather Station Data
 
Daily Summary for June 29, 2016 Units:  English    Metric   Both
« Previous Day
Next Day »
Daily Weekly Monthly Yearly Custom
  Current: High: Low: Average:
Temperature: 70.4 °F 85.0 °F 57.0 °F 73.3 °F
Dew Point: 60.0 °F 61.0 °F 50.0 °F 54.7 °F
Humidity: 70 % 85 % 32 % 55 %
Wind Speed: 3.0 mph 9.0 mph 0.0 mph 1.8 mph
Wind Gust: 6.0 mph 15.0 mph - -
Wind:NE - - ENE
Pressure: 29.96 in 30.10 in 29.93 in -
Precipitation: 0.00 in      
Historical Graphs
 
 
Tabular Data for June 29, 2016
Time Temperature Dew Point Pressure Wind Wind Speed Wind Gust Humidity Rainfall Rate (Hourly) solar Conditions
00:11 67.5 °F 51.0 °F 30.10 in NE 1.0 mph 2.0 mph 56 % 0.00 in 0 W/m2
00:26 67.3 °F 50.0 °F 30.10 in NE 1.0 mph 2.0 mph 55 % 0.00 in 0 W/m2
00:41 67.0 °F 50.0 °F 30.09 in NNE 2.0 mph 4.0 mph 55 % 0.00 in 0 W/m2
00:56 66.7 °F 50.0 °F 30.09 in NNE 1.0 mph 4.0 mph 56 % 0.00 in 0 W/m2
01:11 66.0 °F 51.0 °F 30.09 in NNE 1.0 mph 4.0 mph 58 % 0.00 in 0 W/m2
01:26 65.1 °F 51.0 °F 30.08 in NNE 2.0 mph 5.0 mph 61 % 0.00 in 0 W/m2
01:41 63.9 °F 51.0 °F 30.08 in NE 1.0 mph 6.0 mph 64 % 0.00 in 0 W/m2
01:56 63.4 °F 52.0 °F 30.08 in NE 2.0 mph 4.0 mph 66 % 0.00 in 0 W/m2
02:11 62.8 °F 52.0 °F 30.07 in NE 2.0 mph 4.0 mph 68 % 0.00 in 0 W/m2
02:26 62.3 °F 53.0 °F 30.07 in NE 2.0 mph 4.0 mph 71 % 0.00 in 0 W/m2
02:41 62.3 °F 53.0 °F 30.07 in NE 1.0 mph 2.0 mph 72 % 0.00 in 0 W/m2
02:56 62.0 °F 53.0 °F 30.07 in NE 3.0 mph 4.0 mph 73 % 0.00 in 0 W/m2
03:11 61.8 °F 53.0 °F 30.07 in NE 1.0 mph 4.0 mph 74 % 0.00 in 0 W/m2
03:26 61.3 °F 53.0 °F 30.07 in Calm   1.0 mph 74 % 0.00 in 0 W/m2
03:41 60.8 °F 53.0 °F 30.07 in Calm   2.0 mph 76 % 0.00 in 0 W/m2
03:56 60.6 °F 53.0 °F 30.07 in Calm   1.0 mph 77 % 0.00 in 0 W/m2
04:11 60.0 °F 53.0 °F 30.07 in Calm   1.0 mph 78 % 0.00 in 0 W/m2
04:26 59.8 °F 53.0 °F 30.06 in Calm   2.0 mph 79 % 0.00 in 0 W/m2
04:41 59.7 °F 53.0 °F 30.06 in Calm   2.0 mph 79 % 0.00 in 0 W/m2
04:56 59.3 °F 53.0 °F 30.06 in Calm     79 % 0.00 in 0 W/m2
05:11 58.7 °F 53.0 °F 30.05 in Calm     81 % 0.00 in 0 W/m2
05:27 58.2 °F 53.0 °F 30.05 in Calm     82 % 0.00 in 0 W/m2
05:42 57.9 °F 53.0 °F 30.05 in Calm   1.0 mph 83 % 0.00 in 0 W/m2
05:57 57.5 °F 52.0 °F 30.06 in Calm     82 % 0.00 in 9 W/m2
06:12 57.1 °F 52.0 °F 30.06 in Calm     84 % 0.00 in 16 W/m2
06:27 57.0 °F 53.0 °F 30.06 in Calm     85 % 0.00 in 21 W/m2
06:42 57.7 °F 53.0 °F 30.06 in Calm   1.0 mph 85 % 0.00 in 26 W/m2
06:57 58.7 °F 53.0 °F 30.06 in Calm   3.0 mph 82 % 0.00 in 46 W/m2
07:12 59.9 °F 54.0 °F 30.07 in Calm   1.0 mph 82 % 0.00 in 137 W/m2
07:27 62.0 °F 55.0 °F 30.07 in Calm   2.0 mph 79 % 0.00 in 178 W/m2
07:42 64.1 °F 56.0 °F 30.07 in Calm   3.0 mph 76 % 0.00 in 218 W/m2
07:57 66.7 °F 57.0 °F 30.07 in Calm   2.0 mph 72 % 0.00 in 272 W/m2
08:12 68.6 °F 58.0 °F 30.07 in NE 1.0 mph 2.0 mph 69 % 0.00 in 306 W/m2
08:27 70.2 °F 59.0 °F 30.06 in Calm   1.0 mph 67 % 0.00 in 343 W/m2
08:42 71.2 °F 59.0 °F 30.06 in Calm   3.0 mph 66 % 0.00 in 385 W/m2
08:57 72.4 °F 60.0 °F 30.06 in NE 1.0 mph 4.0 mph 65 % 0.00 in 427 W/m2
09:27 75.1 °F 61.0 °F 30.06 in NNE 1.0 mph 3.0 mph 62 % 0.00 in 510 W/m2
09:42 76.1 °F 61.0 °F 30.06 in Calm   4.0 mph 59 % 0.00 in 547 W/m2
09:58 77.5 °F 61.0 °F 30.06 in NNW 2.0 mph 3.0 mph 57 % 0.00 in 587 W/m2
10:13 77.6 °F 60.0 °F 30.05 in NNE 3.0 mph 4.0 mph 54 % 0.00 in 624 W/m2
10:28 78.4 °F 55.0 °F 30.05 in East 3.0 mph 5.0 mph 44 % 0.00 in 656 W/m2
10:43 78.1 °F 56.0 °F 30.04 in NE 4.0 mph 10.0 mph 46 % 0.00 in 689 W/m2
10:58 79.1 °F 55.0 °F 30.04 in NNE 3.0 mph 9.0 mph 44 % 0.00 in 724 W/m2
11:13 78.7 °F 55.0 °F 30.04 in ENE 3.0 mph 10.0 mph 44 % 0.00 in 751 W/m2
11:28 79.5 °F 56.0 °F 30.04 in NNE 6.0 mph 9.0 mph 45 % 0.00 in 775 W/m2
11:43 79.0 °F 57.0 °F 30.04 in NNE 1.0 mph 11.0 mph 47 % 0.00 in 800 W/m2
11:58 79.9 °F 57.0 °F 30.04 in NNE 3.0 mph 8.0 mph 46 % 0.00 in 823 W/m2
12:13 80.0 °F 54.0 °F 30.04 in ENE 4.0 mph 10.0 mph 41 % 0.00 in 840 W/m2
12:28 80.7 °F 55.0 °F 30.03 in North 3.0 mph 8.0 mph 41 % 0.00 in 856 W/m2
12:43 81.2 °F 56.0 °F 30.04 in ENE 1.0 mph 9.0 mph 42 % 0.00 in 870 W/m2
12:58 81.9 °F 57.0 °F 30.03 in NNW 3.0 mph 9.0 mph 43 % 0.00 in 881 W/m2
13:13 80.7 °F 56.0 °F 30.03 in NNE 2.0 mph 10.0 mph 43 % 0.00 in 881 W/m2
13:28 81.2 °F 55.0 °F 30.03 in NNE 9.0 mph 11.0 mph 41 % 0.00 in 891 W/m2
13:43 81.6 °F 55.0 °F 30.02 in NNE 4.0 mph 10.0 mph 40 % 0.00 in 888 W/m2
13:58 82.1 °F 55.0 °F 30.01 in NNE 6.0 mph 10.0 mph 39 % 0.00 in 884 W/m2
14:13 82.1 °F 55.0 °F 30.01 in North 4.0 mph 10.0 mph 39 % 0.00 in 879 W/m2
14:28 83.0 °F 55.0 °F 30.01 in North 4.0 mph 10.0 mph 38 % 0.00 in 865 W/m2
14:44 83.4 °F 54.0 °F 30.00 in ESE 3.0 mph 9.0 mph 37 % 0.00 in 865 W/m2
14:59 82.9 °F 55.0 °F 29.99 in Calm   9.0 mph 39 % 0.00 in 853 W/m2
15:14 84.1 °F 54.0 °F 29.98 in ENE 1.0 mph 8.0 mph 36 % 0.00 in 823 W/m2
15:29 84.1 °F 54.0 °F 29.98 in NNE 3.0 mph 8.0 mph 35 % 0.00 in 805 W/m2
15:44 84.3 °F 51.0 °F 29.97 in North 4.0 mph 10.0 mph 32 % 0.00 in 786 W/m2
15:59 84.3 °F 51.0 °F 29.96 in Calm   9.0 mph 32 % 0.00 in 784 W/m2
16:14 84.7 °F 53.0 °F 29.96 in Calm   8.0 mph 33 % 0.00 in 661 W/m2
16:29 84.4 °F 54.0 °F 29.96 in NE 5.0 mph 5.0 mph 35 % 0.00 in 401 W/m2
16:44 84.5 °F 52.0 °F 29.96 in Calm   6.0 mph 32 % 0.00 in 462 W/m2
16:59 84.7 °F 52.0 °F 29.96 in NNE 4.0 mph 6.0 mph 32 % 0.00 in 512 W/m2
17:14 84.3 °F 54.0 °F 29.95 in Calm   8.0 mph 35 % 0.00 in 649 W/m2
17:29 85.0 °F 53.0 °F 29.95 in NNE 3.0 mph 6.0 mph 33 % 0.00 in 478 W/m2
17:44 85.0 °F 54.0 °F 29.95 in NNE 3.0 mph 5.0 mph 34 % 0.00 in 396 W/m2
17:59 84.7 °F 53.0 °F 29.95 in NNE 1.0 mph 4.0 mph 33 % 0.00 in 267 W/m2
18:14 84.1 °F 53.0 °F 29.95 in NNW 2.0 mph 3.0 mph 34 % 0.00 in 211 W/m2
18:29 83.2 °F 53.0 °F 29.95 in NNE 1.0 mph 5.0 mph 35 % 0.00 in 174 W/m2
18:44 83.0 °F 52.0 °F 29.95 in Calm   4.0 mph 34 % 0.00 in 146 W/m2
18:59 82.7 °F 52.0 °F 29.95 in North 2.0 mph 4.0 mph 35 % 0.00 in 100 W/m2
19:14 82.4 °F 54.0 °F 29.94 in North 2.0 mph 5.0 mph 37 % 0.00 in 74 W/m2
19:44 81.5 °F 55.0 °F 29.94 in Calm   8.0 mph 40 % 0.00 in 69 W/m2
19:59 80.8 °F 54.0 °F 29.94 in Calm   5.0 mph 40 % 0.00 in 42 W/m2
20:14 80.6 °F 53.0 °F 29.94 in North 1.0 mph 3.0 mph 39 % 0.00 in 49 W/m2
20:29 80.6 °F 53.0 °F 29.94 in Calm   4.0 mph 39 % 0.00 in 40 W/m2
20:44 80.1 °F 55.0 °F 29.94 in Calm   2.0 mph 42 % 0.00 in 26 W/m2
20:59 79.7 °F 56.0 °F 29.93 in North 2.0 mph 4.0 mph 44 % 0.00 in 19 W/m2
21:14 78.5 °F 57.0 °F 29.94 in Calm   4.0 mph 47 % 0.00 in 12 W/m2
21:29 77.4 °F 58.0 °F 29.94 in North 6.0 mph 6.0 mph 51 % 0.00 in 7 W/m2
21:44 76.4 °F 58.0 °F 29.95 in North 1.0 mph 5.0 mph 53 % 0.00 in 0 W/m2
21:59 75.1 °F 59.0 °F 29.96 in NNE 2.0 mph 9.0 mph 58 % 0.00 in 0 W/m2
22:29 73.3 °F 57.0 °F 29.97 in NNE 6.0 mph 14.0 mph 58 % 0.00 in 0 W/m2
22:44 71.5 °F 59.0 °F 29.97 in NNE 5.0 mph 15.0 mph 64 % 0.00 in 0 W/m2
22:59 70.7 °F 59.0 °F 29.98 in NNE 4.0 mph 10.0 mph 67 % 0.00 in 0 W/m2
23:16 70.5 °F 60.0 °F 29.97 in NNE 3.0 mph 8.0 mph 69 % 0.00 in 0 W/m2
23:29 70.5 °F 60.0 °F 29.97 in North 3.0 mph 8.0 mph 69 % 0.00 in 0 W/m2
23:44 70.4 °F 60.0 °F 29.96 in NE 3.0 mph 6.0 mph 70 % 0.00 in 0 W/m2
Compliments of Weather Underground - 1.25 mb

20 Visitors online right now
Max visitors today: 25 at 12:05 am EDT
This month: 30 at 06-01-2016 05:35 pm EDT
This year: 77 at 01-01-2016 11:56 pm EST
All time: 104 at 01-04-2012 03:34 am EST
See Who is Online